sensor_id;sensor_type;location;lat;lon;timestamp;temperature;humidity
23991;DHT22;12205;50.600;4.608;2023-03-09T00:01:24;5.40;99.90
23991;DHT22;12205;50.600;4.608;2023-03-09T00:03:53;5.30;99.90
23991;DHT22;12205;50.600;4.608;2023-03-09T00:06:20;5.40;99.90
23991;DHT22;12205;50.600;4.608;2023-03-09T00:08:47;5.30;99.90
23991;DHT22;12205;50.600;4.608;2023-03-09T00:11:15;5.30;99.90
23991;DHT22;12205;50.600;4.608;2023-03-09T00:13:43;5.30;99.90
23991;DHT22;12205;50.600;4.608;2023-03-09T00:16:11;5.40;99.90
23991;DHT22;12205;50.600;4.608;2023-03-09T00:18:41;5.40;99.90
23991;DHT22;12205;50.600;4.608;2023-03-09T00:21:09;5.40;99.90
23991;DHT22;12205;50.600;4.608;2023-03-09T00:23:54;5.50;99.90
23991;DHT22;12205;50.600;4.608;2023-03-09T00:26:21;5.50;99.90
23991;DHT22;12205;50.600;4.608;2023-03-09T00:28:48;5.50;99.90
23991;DHT22;12205;50.600;4.608;2023-03-09T00:31:16;5.50;99.90
23991;DHT22;12205;50.600;4.608;2023-03-09T00:33:44;5.60;99.90
23991;DHT22;12205;50.600;4.608;2023-03-09T00:36:13;5.60;99.90
23991;DHT22;12205;50.600;4.608;2023-03-09T00:38:40;5.70;99.90
23991;DHT22;12205;50.600;4.608;2023-03-09T00:41:08;5.80;99.90
23991;DHT22;12205;50.600;4.608;2023-03-09T00:43:35;5.80;99.90
23991;DHT22;12205;50.600;4.608;2023-03-09T00:46:02;5.90;99.90
23991;DHT22;12205;50.600;4.608;2023-03-09T00:48:29;6.10;99.90
23991;DHT22;12205;50.600;4.608;2023-03-09T00:50:57;6.20;99.90
23991;DHT22;12205;50.600;4.608;2023-03-09T00:53:24;6.30;99.90
23991;DHT22;12205;50.600;4.608;2023-03-09T00:55:51;6.50;99.90
23991;DHT22;12205;50.600;4.608;2023-03-09T00:58:18;6.60;99.90
23991;DHT22;12205;50.600;4.608;2023-03-09T01:00:45;6.60;99.90
23991;DHT22;12205;50.600;4.608;2023-03-09T01:03:12;6.80;99.90
23991;DHT22;12205;50.600;4.608;2023-03-09T01:05:39;6.90;99.90
23991;DHT22;12205;50.600;4.608;2023-03-09T01:08:07;7.10;99.90
23991;DHT22;12205;50.600;4.608;2023-03-09T01:10:37;7.20;99.90
23991;DHT22;12205;50.600;4.608;2023-03-09T01:13:04;7.30;99.90
23991;DHT22;12205;50.600;4.608;2023-03-09T01:15:31;7.40;99.90
23991;DHT22;12205;50.600;4.608;2023-03-09T01:17:58;7.40;99.90
23991;DHT22;12205;50.600;4.608;2023-03-09T01:20:25;7.50;99.90
23991;DHT22;12205;50.600;4.608;2023-03-09T01:22:52;7.60;99.90
23991;DHT22;12205;50.600;4.608;2023-03-09T01:25:20;7.60;99.90
23991;DHT22;12205;50.600;4.608;2023-03-09T01:27:47;7.60;99.90
23991;DHT22;12205;50.600;4.608;2023-03-09T01:30:14;7.70;99.90
23991;DHT22;12205;50.600;4.608;2023-03-09T01:32:44;7.70;99.90
23991;DHT22;12205;50.600;4.608;2023-03-09T01:35:11;7.70;99.90
23991;DHT22;12205;50.600;4.608;2023-03-09T01:37:38;7.70;99.90
23991;DHT22;12205;50.600;4.608;2023-03-09T01:40:06;7.70;99.90
23991;DHT22;12205;50.600;4.608;2023-03-09T01:42:36;7.80;99.90
23991;DHT22;12205;50.600;4.608;2023-03-09T01:45:06;7.90;99.90
23991;DHT22;12205;50.600;4.608;2023-03-09T01:47:52;7.90;99.90
23991;DHT22;12205;50.600;4.608;2023-03-09T01:50:24;8.10;99.90
23991;DHT22;12205;50.600;4.608;2023-03-09T01:52:53;8.10;99.90
23991;DHT22;12205;50.600;4.608;2023-03-09T01:55:25;8.20;99.90
23991;DHT22;12205;50.600;4.608;2023-03-09T01:57:59;8.30;99.90
23991;DHT22;12205;50.600;4.608;2023-03-09T02:00:30;8.40;99.90
23991;DHT22;12205;50.600;4.608;2023-03-09T02:03:03;8.40;99.90
23991;DHT22;12205;50.600;4.608;2023-03-09T02:05:35;8.40;99.90
23991;DHT22;12205;50.600;4.608;2023-03-09T02:08:07;8.40;99.90
23991;DHT22;12205;50.600;4.608;2023-03-09T02:10:37;8.40;99.90
23991;DHT22;12205;50.600;4.608;2023-03-09T02:13:12;8.40;99.90
23991;DHT22;12205;50.600;4.608;2023-03-09T02:15:42;8.50;99.90
23991;DHT22;12205;50.600;4.608;2023-03-09T02:18:09;8.50;99.90
23991;DHT22;12205;50.600;4.608;2023-03-09T02:20:37;8.50;99.90
23991;DHT22;12205;50.600;4.608;2023-03-09T02:23:10;8.50;99.90
23991;DHT22;12205;50.600;4.608;2023-03-09T02:25:48;8.50;99.90
23991;DHT22;12205;50.600;4.608;2023-03-09T02:28:20;8.50;99.90
23991;DHT22;12205;50.600;4.608;2023-03-09T02:30:48;8.50;99.90
23991;DHT22;12205;50.600;4.608;2023-03-09T02:33:21;8.50;99.90
23991;DHT22;12205;50.600;4.608;2023-03-09T02:35:53;8.50;99.90
23991;DHT22;12205;50.600;4.608;2023-03-09T02:38:21;8.50;99.90
23991;DHT22;12205;50.600;4.608;2023-03-09T02:40:49;8.50;99.90
23991;DHT22;12205;50.600;4.608;2023-03-09T02:43:21;8.60;99.90
23991;DHT22;12205;50.600;4.608;2023-03-09T02:45:51;8.60;99.90
23991;DHT22;12205;50.600;4.608;2023-03-09T02:48:18;8.60;99.90
23991;DHT22;12205;50.600;4.608;2023-03-09T02:50:45;8.60;99.90
23991;DHT22;12205;50.600;4.608;2023-03-09T02:53:13;8.50;99.90
23991;DHT22;12205;50.600;4.608;2023-03-09T02:55:40;8.50;99.90
23991;DHT22;12205;50.600;4.608;2023-03-09T02:58:09;8.60;99.90
23991;DHT22;12205;50.600;4.608;2023-03-09T03:00:38;8.60;99.90
23991;DHT22;12205;50.600;4.608;2023-03-09T03:03:05;8.60;99.90
23991;DHT22;12205;50.600;4.608;2023-03-09T03:05:32;8.60;99.90
23991;DHT22;12205;50.600;4.608;2023-03-09T03:08:00;8.60;99.90
23991;DHT22;12205;50.600;4.608;2023-03-09T03:10:27;8.60;99.90
23991;DHT22;12205;50.600;4.608;2023-03-09T03:12:54;8.60;99.90
23991;DHT22;12205;50.600;4.608;2023-03-09T03:15:21;8.70;99.90
23991;DHT22;12205;50.600;4.608;2023-03-09T03:17:50;8.70;99.90
23991;DHT22;12205;50.600;4.608;2023-03-09T03:20:17;8.80;99.90
23991;DHT22;12205;50.600;4.608;2023-03-09T03:22:46;8.80;99.90
23991;DHT22;12205;50.600;4.608;2023-03-09T03:25:17;8.80;99.90
23991;DHT22;12205;50.600;4.608;2023-03-09T03:27:46;8.80;99.90
23991;DHT22;12205;50.600;4.608;2023-03-09T03:30:14;8.80;99.90
23991;DHT22;12205;50.600;4.608;2023-03-09T03:32:44;8.80;99.90
23991;DHT22;12205;50.600;4.608;2023-03-09T03:35:18;8.80;99.90
23991;DHT22;12205;50.600;4.608;2023-03-09T03:37:45;8.90;99.90
23991;DHT22;12205;50.600;4.608;2023-03-09T03:40:15;8.90;99.90
23991;DHT22;12205;50.600;4.608;2023-03-09T03:42:45;8.80;99.90
23991;DHT22;12205;50.600;4.608;2023-03-09T03:45:14;8.90;99.90
23991;DHT22;12205;50.600;4.608;2023-03-09T03:47:42;8.90;99.90
23991;DHT22;12205;50.600;4.608;2023-03-09T03:50:09;8.90;99.90
23991;DHT22;12205;50.600;4.608;2023-03-09T03:52:47;8.90;99.90
23991;DHT22;12205;50.600;4.608;2023-03-09T03:55:14;8.90;99.90
23991;DHT22;12205;50.600;4.608;2023-03-09T03:57:41;8.90;99.90
23991;DHT22;12205;50.600;4.608;2023-03-09T04:00:10;8.80;99.90
23991;DHT22;12205;50.600;4.608;2023-03-09T04:02:40;8.80;99.90
23991;DHT22;12205;50.600;4.608;2023-03-09T04:05:15;8.80;99.90
23991;DHT22;12205;50.600;4.608;2023-03-09T04:07:44;8.80;99.90
23991;DHT22;12205;50.600;4.608;2023-03-09T04:10:13;8.80;99.90
23991;DHT22;12205;50.600;4.608;2023-03-09T04:12:43;8.80;99.90
23991;DHT22;12205;50.600;4.608;2023-03-09T04:15:11;8.80;99.90
23991;DHT22;12205;50.600;4.608;2023-03-09T04:17:38;8.80;99.90
23991;DHT22;12205;50.600;4.608;2023-03-09T04:20:06;8.90;99.90
23991;DHT22;12205;50.600;4.608;2023-03-09T04:22:34;8.80;99.90
23991;DHT22;12205;50.600;4.608;2023-03-09T04:25:01;8.80;99.90
23991;DHT22;12205;50.600;4.608;2023-03-09T04:27:30;8.90;99.90
23991;DHT22;12205;50.600;4.608;2023-03-09T04:30:10;8.90;99.90
23991;DHT22;12205;50.600;4.608;2023-03-09T04:32:38;8.90;99.90
23991;DHT22;12205;50.600;4.608;2023-03-09T04:35:06;8.90;99.90
23991;DHT22;12205;50.600;4.608;2023-03-09T04:37:41;8.90;99.90
23991;DHT22;12205;50.600;4.608;2023-03-09T04:40:11;8.90;99.90
23991;DHT22;12205;50.600;4.608;2023-03-09T04:42:41;8.90;99.90
23991;DHT22;12205;50.600;4.608;2023-03-09T04:45:09;8.90;99.90
23991;DHT22;12205;50.600;4.608;2023-03-09T04:47:39;8.90;99.90
23991;DHT22;12205;50.600;4.608;2023-03-09T04:50:07;8.90;99.90
23991;DHT22;12205;50.600;4.608;2023-03-09T04:52:39;8.90;99.90
23991;DHT22;12205;50.600;4.608;2023-03-09T04:55:06;8.90;99.90
23991;DHT22;12205;50.600;4.608;2023-03-09T04:57:35;8.90;99.90
23991;DHT22;12205;50.600;4.608;2023-03-09T05:00:04;8.90;99.90
23991;DHT22;12205;50.600;4.608;2023-03-09T05:02:34;8.90;99.90
23991;DHT22;12205;50.600;4.608;2023-03-09T05:05:01;8.90;99.90
23991;DHT22;12205;50.600;4.608;2023-03-09T05:07:29;8.90;99.90
23991;DHT22;12205;50.600;4.608;2023-03-09T05:09:57;8.90;99.90
23991;DHT22;12205;50.600;4.608;2023-03-09T05:12:24;9.00;99.90
23991;DHT22;12205;50.600;4.608;2023-03-09T05:14:57;9.00;99.90
23991;DHT22;12205;50.600;4.608;2023-03-09T05:17:26;9.00;99.90
23991;DHT22;12205;50.600;4.608;2023-03-09T05:19:54;9.00;99.90
23991;DHT22;12205;50.600;4.608;2023-03-09T05:22:21;9.00;99.90
23991;DHT22;12205;50.600;4.608;2023-03-09T05:24:48;9.00;99.90
23991;DHT22;12205;50.600;4.608;2023-03-09T05:27:16;9.00;99.90
23991;DHT22;12205;50.600;4.608;2023-03-09T05:29:44;9.00;99.90
23991;DHT22;12205;50.600;4.608;2023-03-09T05:32:12;9.00;99.90
23991;DHT22;12205;50.600;4.608;2023-03-09T05:34:41;9.00;99.90
23991;DHT22;12205;50.600;4.608;2023-03-09T05:37:08;9.00;99.90
23991;DHT22;12205;50.600;4.608;2023-03-09T05:39:36;9.00;99.90
23991;DHT22;12205;50.600;4.608;2023-03-09T05:42:04;9.00;99.90
23991;DHT22;12205;50.600;4.608;2023-03-09T05:44:36;9.00;99.90
23991;DHT22;12205;50.600;4.608;2023-03-09T05:47:04;9.00;99.90
23991;DHT22;12205;50.600;4.608;2023-03-09T05:49:31;8.90;99.90
23991;DHT22;12205;50.600;4.608;2023-03-09T05:51:59;9.00;99.90
23991;DHT22;12205;50.600;4.608;2023-03-09T05:54:27;8.90;99.90
23991;DHT22;12205;50.600;4.608;2023-03-09T05:56:58;8.90;99.90
23991;DHT22;12205;50.600;4.608;2023-03-09T05:59:26;8.90;99.90
23991;DHT22;12205;50.600;4.608;2023-03-09T06:01:53;8.90;99.90
23991;DHT22;12205;50.600;4.608;2023-03-09T06:04:23;8.90;99.90
23991;DHT22;12205;50.600;4.608;2023-03-09T06:06:55;8.90;99.90
23991;DHT22;12205;50.600;4.608;2023-03-09T06:09:28;8.90;99.90
23991;DHT22;12205;50.600;4.608;2023-03-09T06:11:57;8.90;99.90
23991;DHT22;12205;50.600;4.608;2023-03-09T06:14:24;9.00;99.90
23991;DHT22;12205;50.600;4.608;2023-03-09T06:16:52;9.00;99.90
23991;DHT22;12205;50.600;4.608;2023-03-09T06:19:19;8.90;99.90
23991;DHT22;12205;50.600;4.608;2023-03-09T06:21:49;8.90;99.90
23991;DHT22;12205;50.600;4.608;2023-03-09T06:24:17;9.00;99.90
23991;DHT22;12205;50.600;4.608;2023-03-09T06:26:45;9.00;99.90
23991;DHT22;12205;50.600;4.608;2023-03-09T06:29:14;9.00;99.90
23991;DHT22;12205;50.600;4.608;2023-03-09T06:31:44;9.00;99.90
23991;DHT22;12205;50.600;4.608;2023-03-09T06:34:11;9.00;99.90
23991;DHT22;12205;50.600;4.608;2023-03-09T06:36:38;9.00;99.90
23991;DHT22;12205;50.600;4.608;2023-03-09T06:39:06;9.00;99.90
23991;DHT22;12205;50.600;4.608;2023-03-09T06:41:37;8.90;99.90
23991;DHT22;12205;50.600;4.608;2023-03-09T06:44:15;8.80;99.90
23991;DHT22;12205;50.600;4.608;2023-03-09T06:46:44;8.80;99.90
23991;DHT22;12205;50.600;4.608;2023-03-09T06:49:13;8.90;99.90
23991;DHT22;12205;50.600;4.608;2023-03-09T06:51:40;8.90;99.90
23991;DHT22;12205;50.600;4.608;2023-03-09T06:54:07;8.90;99.90
23991;DHT22;12205;50.600;4.608;2023-03-09T06:56:39;8.80;99.90
23991;DHT22;12205;50.600;4.608;2023-03-09T06:59:07;8.70;99.90
23991;DHT22;12205;50.600;4.608;2023-03-09T07:01:35;8.60;99.90
23991;DHT22;12205;50.600;4.608;2023-03-09T07:04:02;8.50;99.90
23991;DHT22;12205;50.600;4.608;2023-03-09T07:06:29;8.40;99.90
23991;DHT22;12205;50.600;4.608;2023-03-09T07:08:56;8.20;99.90
23991;DHT22;12205;50.600;4.608;2023-03-09T07:11:23;8.20;99.90
23991;DHT22;12205;50.600;4.608;2023-03-09T07:13:50;8.20;99.90
23991;DHT22;12205;50.600;4.608;2023-03-09T07:16:17;8.20;99.90
23991;DHT22;12205;50.600;4.608;2023-03-09T07:18:46;8.20;99.90
23991;DHT22;12205;50.600;4.608;2023-03-09T07:21:12;8.10;99.90
23991;DHT22;12205;50.600;4.608;2023-03-09T07:23:41;8.10;99.90
23991;DHT22;12205;50.600;4.608;2023-03-09T07:26:08;8.10;99.90
23991;DHT22;12205;50.600;4.608;2023-03-09T07:28:35;8.00;99.90
23991;DHT22;12205;50.600;4.608;2023-03-09T07:31:06;8.00;99.90
23991;DHT22;12205;50.600;4.608;2023-03-09T07:33:34;8.00;99.90
23991;DHT22;12205;50.600;4.608;2023-03-09T07:36:03;7.90;99.90
23991;DHT22;12205;50.600;4.608;2023-03-09T07:38:30;7.90;99.90
23991;DHT22;12205;50.600;4.608;2023-03-09T07:40:57;7.90;99.90
23991;DHT22;12205;50.600;4.608;2023-03-09T07:43:24;7.90;99.90
23991;DHT22;12205;50.600;4.608;2023-03-09T07:46:05;8.00;99.90
23991;DHT22;12205;50.600;4.608;2023-03-09T07:48:33;8.00;99.90
23991;DHT22;12205;50.600;4.608;2023-03-09T07:51:04;8.00;99.90
23991;DHT22;12205;50.600;4.608;2023-03-09T07:53:33;8.00;99.90
23991;DHT22;12205;50.600;4.608;2023-03-09T07:56:01;8.10;99.90
23991;DHT22;12205;50.600;4.608;2023-03-09T07:58:29;8.10;99.90
23991;DHT22;12205;50.600;4.608;2023-03-09T08:00:56;8.10;99.90
23991;DHT22;12205;50.600;4.608;2023-03-09T08:03:23;8.10;99.90
23991;DHT22;12205;50.600;4.608;2023-03-09T08:05:51;8.10;99.90
23991;DHT22;12205;50.600;4.608;2023-03-09T08:08:21;8.20;99.90
23991;DHT22;12205;50.600;4.608;2023-03-09T08:10:48;8.30;99.90
23991;DHT22;12205;50.600;4.608;2023-03-09T08:13:16;8.20;99.90
23991;DHT22;12205;50.600;4.608;2023-03-09T08:15:43;8.30;99.90
23991;DHT22;12205;50.600;4.608;2023-03-09T08:18:10;8.40;99.90
23991;DHT22;12205;50.600;4.608;2023-03-09T08:20:37;8.40;99.90
23991;DHT22;12205;50.600;4.608;2023-03-09T08:23:05;8.40;99.90
23991;DHT22;12205;50.600;4.608;2023-03-09T08:25:33;8.30;99.90
23991;DHT22;12205;50.600;4.608;2023-03-09T08:28:00;8.40;99.90
23991;DHT22;12205;50.600;4.608;2023-03-09T08:30:27;8.40;99.90
23991;DHT22;12205;50.600;4.608;2023-03-09T08:32:54;8.60;99.90
23991;DHT22;12205;50.600;4.608;2023-03-09T08:35:22;8.60;99.90
23991;DHT22;12205;50.600;4.608;2023-03-09T08:37:50;8.60;99.90
23991;DHT22;12205;50.600;4.608;2023-03-09T08:40:17;8.60;99.90
23991;DHT22;12205;50.600;4.608;2023-03-09T08:42:46;8.70;99.90
23991;DHT22;12205;50.600;4.608;2023-03-09T08:45:13;8.70;99.90
23991;DHT22;12205;50.600;4.608;2023-03-09T08:47:40;8.70;99.90
23991;DHT22;12205;50.600;4.608;2023-03-09T08:50:07;8.80;99.90
23991;DHT22;12205;50.600;4.608;2023-03-09T08:52:35;8.80;99.90
23991;DHT22;12205;50.600;4.608;2023-03-09T08:55:05;8.90;99.90
23991;DHT22;12205;50.600;4.608;2023-03-09T08:57:34;8.90;99.90
23991;DHT22;12205;50.600;4.608;2023-03-09T09:00:03;9.00;99.90
23991;DHT22;12205;50.600;4.608;2023-03-09T09:02:33;9.00;99.90
23991;DHT22;12205;50.600;4.608;2023-03-09T09:05:00;9.10;99.90
23991;DHT22;12205;50.600;4.608;2023-03-09T09:07:27;9.20;99.90
23991;DHT22;12205;50.600;4.608;2023-03-09T09:09:55;9.20;99.90
23991;DHT22;12205;50.600;4.608;2023-03-09T09:12:23;9.20;99.90
23991;DHT22;12205;50.600;4.608;2023-03-09T09:14:53;9.20;99.90
23991;DHT22;12205;50.600;4.608;2023-03-09T09:17:21;9.30;99.90
23991;DHT22;12205;50.600;4.608;2023-03-09T09:19:48;9.40;99.90
23991;DHT22;12205;50.600;4.608;2023-03-09T09:22:17;9.40;99.90
23991;DHT22;12205;50.600;4.608;2023-03-09T09:24:44;9.60;99.90
23991;DHT22;12205;50.600;4.608;2023-03-09T09:27:10;9.70;99.90
23991;DHT22;12205;50.600;4.608;2023-03-09T09:29:37;9.80;99.90
23991;DHT22;12205;50.600;4.608;2023-03-09T09:32:05;9.80;99.90
23991;DHT22;12205;50.600;4.608;2023-03-09T09:34:33;9.90;99.90
23991;DHT22;12205;50.600;4.608;2023-03-09T09:37:01;10.10;99.90
23991;DHT22;12205;50.600;4.608;2023-03-09T09:39:31;10.20;99.90
23991;DHT22;12205;50.600;4.608;2023-03-09T09:41:59;10.20;99.90
23991;DHT22;12205;50.600;4.608;2023-03-09T09:44:30;10.30;99.90
23991;DHT22;12205;50.600;4.608;2023-03-09T09:46:59;10.30;99.90
23991;DHT22;12205;50.600;4.608;2023-03-09T09:49:29;10.40;99.90
23991;DHT22;12205;50.600;4.608;2023-03-09T09:52:04;10.50;99.90
23991;DHT22;12205;50.600;4.608;2023-03-09T09:54:39;10.50;99.90
23991;DHT22;12205;50.600;4.608;2023-03-09T09:57:13;10.50;99.90
23991;DHT22;12205;50.600;4.608;2023-03-09T09:59:46;10.60;99.90
23991;DHT22;12205;50.600;4.608;2023-03-09T10:05:19;10.70;99.90
23991;DHT22;12205;50.600;4.608;2023-03-09T10:07:53;10.70;99.90
23991;DHT22;12205;50.600;4.608;2023-03-09T10:10:22;10.70;99.90
23991;DHT22;12205;50.600;4.608;2023-03-09T10:12:53;10.80;99.90
23991;DHT22;12205;50.600;4.608;2023-03-09T10:15:22;10.60;99.90
23991;DHT22;12205;50.600;4.608;2023-03-09T10:17:54;10.50;99.90
23991;DHT22;12205;50.600;4.608;2023-03-09T10:20:25;10.40;99.90
23991;DHT22;12205;50.600;4.608;2023-03-09T10:22:57;10.40;99.90
23991;DHT22;12205;50.600;4.608;2023-03-09T10:25:25;10.40;99.90
23991;DHT22;12205;50.600;4.608;2023-03-09T10:27:55;10.40;99.90
23991;DHT22;12205;50.600;4.608;2023-03-09T10:30:30;10.40;99.90
23991;DHT22;12205;50.600;4.608;2023-03-09T10:33:03;10.40;99.90
23991;DHT22;12205;50.600;4.608;2023-03-09T10:35:39;10.50;99.90
23991;DHT22;12205;50.600;4.608;2023-03-09T10:38:11;10.60;99.90
23991;DHT22;12205;50.600;4.608;2023-03-09T10:40:43;10.70;99.90
23991;DHT22;12205;50.600;4.608;2023-03-09T10:43:13;10.80;99.90
23991;DHT22;12205;50.600;4.608;2023-03-09T10:45:46;10.90;99.90
23991;DHT22;12205;50.600;4.608;2023-03-09T10:48:18;10.90;99.90
23991;DHT22;12205;50.600;4.608;2023-03-09T10:50:57;10.90;99.90
23991;DHT22;12205;50.600;4.608;2023-03-09T10:53:28;10.90;99.90
23991;DHT22;12205;50.600;4.608;2023-03-09T10:56:02;11.00;99.90
23991;DHT22;12205;50.600;4.608;2023-03-09T10:58:32;11.00;99.90
23991;DHT22;12205;50.600;4.608;2023-03-09T11:01:00;11.00;99.90
23991;DHT22;12205;50.600;4.608;2023-03-09T11:03:35;11.10;99.90
23991;DHT22;12205;50.600;4.608;2023-03-09T11:06:17;11.20;99.90
23991;DHT22;12205;50.600;4.608;2023-03-09T11:08:55;11.30;99.90
23991;DHT22;12205;50.600;4.608;2023-03-09T11:11:25;11.30;99.90
23991;DHT22;12205;50.600;4.608;2023-03-09T11:13:53;11.30;99.90
23991;DHT22;12205;50.600;4.608;2023-03-09T11:16:21;11.30;99.90
23991;DHT22;12205;50.600;4.608;2023-03-09T11:18:58;11.20;99.90
23991;DHT22;12205;50.600;4.608;2023-03-09T11:21:35;11.30;99.90
23991;DHT22;12205;50.600;4.608;2023-03-09T11:24:04;11.30;99.90
23991;DHT22;12205;50.600;4.608;2023-03-09T11:26:34;11.30;99.90
23991;DHT22;12205;50.600;4.608;2023-03-09T11:29:06;11.30;99.90
23991;DHT22;12205;50.600;4.608;2023-03-09T11:31:44;11.30;99.90
23991;DHT22;12205;50.600;4.608;2023-03-09T11:34:13;11.20;99.90
23991;DHT22;12205;50.600;4.608;2023-03-09T11:36:43;11.00;99.90
23991;DHT22;12205;50.600;4.608;2023-03-09T11:39:18;11.00;99.90
23991;DHT22;12205;50.600;4.608;2023-03-09T11:41:47;11.10;99.90
23991;DHT22;12205;50.600;4.608;2023-03-09T11:44:21;11.30;99.90
23991;DHT22;12205;50.600;4.608;2023-03-09T11:46:51;11.30;99.90
23991;DHT22;12205;50.600;4.608;2023-03-09T11:49:22;11.30;99.90
23991;DHT22;12205;50.600;4.608;2023-03-09T11:51:52;11.40;99.90
23991;DHT22;12205;50.600;4.608;2023-03-09T11:54:22;11.50;99.90
23991;DHT22;12205;50.600;4.608;2023-03-09T11:56:55;11.60;99.90
23991;DHT22;12205;50.600;4.608;2023-03-09T11:59:23;11.60;99.90
23991;DHT22;12205;50.600;4.608;2023-03-09T12:01:56;11.60;99.90
23991;DHT22;12205;50.600;4.608;2023-03-09T12:04:26;11.70;99.90
23991;DHT22;12205;50.600;4.608;2023-03-09T12:06:53;11.70;99.90
23991;DHT22;12205;50.600;4.608;2023-03-09T12:09:27;11.80;99.90
23991;DHT22;12205;50.600;4.608;2023-03-09T12:12:00;11.90;99.90
23991;DHT22;12205;50.600;4.608;2023-03-09T12:14:32;11.90;99.90
23991;DHT22;12205;50.600;4.608;2023-03-09T12:17:03;12.00;99.90
23991;DHT22;12205;50.600;4.608;2023-03-09T12:19:37;12.10;99.90
23991;DHT22;12205;50.600;4.608;2023-03-09T12:22:04;12.10;99.90
23991;DHT22;12205;50.600;4.608;2023-03-09T12:24:36;12.20;99.90
23991;DHT22;12205;50.600;4.608;2023-03-09T12:27:15;12.20;99.90
23991;DHT22;12205;50.600;4.608;2023-03-09T12:29:44;12.30;99.90
23991;DHT22;12205;50.600;4.608;2023-03-09T12:32:17;12.40;99.90
23991;DHT22;12205;50.600;4.608;2023-03-09T12:34:59;12.50;99.90
23991;DHT22;12205;50.600;4.608;2023-03-09T12:37:40;12.50;99.90
23991;DHT22;12205;50.600;4.608;2023-03-09T12:40:29;12.50;99.90
23991;DHT22;12205;50.600;4.608;2023-03-09T12:43:31;12.60;99.90
23991;DHT22;12205;50.600;4.608;2023-03-09T12:49:26;12.70;99.90
23991;DHT22;12205;50.600;4.608;2023-03-09T12:52:09;12.70;99.90
23991;DHT22;12205;50.600;4.608;2023-03-09T12:54:51;12.70;99.90
23991;DHT22;12205;50.600;4.608;2023-03-09T12:57:23;12.70;99.90
23991;DHT22;12205;50.600;4.608;2023-03-09T12:59:50;12.70;99.90
23991;DHT22;12205;50.600;4.608;2023-03-09T13:02:22;12.80;99.90
23991;DHT22;12205;50.600;4.608;2023-03-09T13:05:11;12.80;99.90
23991;DHT22;12205;50.600;4.608;2023-03-09T13:07:50;12.80;99.90
23991;DHT22;12205;50.600;4.608;2023-03-09T13:10:21;12.80;99.90
23991;DHT22;12205;50.600;4.608;2023-03-09T13:12:54;12.80;99.90
23991;DHT22;12205;50.600;4.608;2023-03-09T13:15:23;12.80;99.90
23991;DHT22;12205;50.600;4.608;2023-03-09T13:18:09;12.80;99.90
23991;DHT22;12205;50.600;4.608;2023-03-09T13:20:38;12.70;99.90
23991;DHT22;12205;50.600;4.608;2023-03-09T13:23:09;12.80;99.90
23991;DHT22;12205;50.600;4.608;2023-03-09T13:25:41;12.90;99.90
23991;DHT22;12205;50.600;4.608;2023-03-09T13:28:15;13.00;99.90
23991;DHT22;12205;50.600;4.608;2023-03-09T13:30:47;13.00;99.90
23991;DHT22;12205;50.600;4.608;2023-03-09T13:33:18;13.00;99.90
23991;DHT22;12205;50.600;4.608;2023-03-09T13:38:36;13.00;99.90
23991;DHT22;12205;50.600;4.608;2023-03-09T13:41:05;12.90;99.90
23991;DHT22;12205;50.600;4.608;2023-03-09T13:43:34;12.90;99.90
23991;DHT22;12205;50.600;4.608;2023-03-09T13:46:04;12.80;99.90
23991;DHT22;12205;50.600;4.608;2023-03-09T13:48:34;12.70;99.90
23991;DHT22;12205;50.600;4.608;2023-03-09T13:51:21;12.60;99.90
23991;DHT22;12205;50.600;4.608;2023-03-09T13:53:50;12.60;99.90
23991;DHT22;12205;50.600;4.608;2023-03-09T13:56:17;12.60;99.90
23991;DHT22;12205;50.600;4.608;2023-03-09T13:58:46;12.70;99.90
23991;DHT22;12205;50.600;4.608;2023-03-09T14:01:18;12.70;99.90
23991;DHT22;12205;50.600;4.608;2023-03-09T14:03:48;12.70;99.90
23991;DHT22;12205;50.600;4.608;2023-03-09T14:06:19;12.70;99.90
23991;DHT22;12205;50.600;4.608;2023-03-09T14:08:52;12.60;99.90
23991;DHT22;12205;50.600;4.608;2023-03-09T14:11:22;12.70;99.90
23991;DHT22;12205;50.600;4.608;2023-03-09T14:13:53;12.80;99.90
23991;DHT22;12205;50.600;4.608;2023-03-09T14:16:25;12.80;99.90
23991;DHT22;12205;50.600;4.608;2023-03-09T14:18:53;12.90;99.90
23991;DHT22;12205;50.600;4.608;2023-03-09T14:21:22;13.00;99.90
23991;DHT22;12205;50.600;4.608;2023-03-09T14:23:50;12.90;99.90
23991;DHT22;12205;50.600;4.608;2023-03-09T14:26:22;12.80;99.90
23991;DHT22;12205;50.600;4.608;2023-03-09T14:29:00;12.70;99.90
23991;DHT22;12205;50.600;4.608;2023-03-09T14:31:29;12.60;99.90
23991;DHT22;12205;50.600;4.608;2023-03-09T14:33:58;12.40;99.90
23991;DHT22;12205;50.600;4.608;2023-03-09T14:36:28;12.20;99.90
23991;DHT22;12205;50.600;4.608;2023-03-09T14:39:00;12.20;99.90
23991;DHT22;12205;50.600;4.608;2023-03-09T14:41:36;12.10;99.90
23991;DHT22;12205;50.600;4.608;2023-03-09T14:44:05;12.10;99.90
23991;DHT22;12205;50.600;4.608;2023-03-09T14:46:32;12.20;99.90
23991;DHT22;12205;50.600;4.608;2023-03-09T14:49:00;12.20;99.90
23991;DHT22;12205;50.600;4.608;2023-03-09T14:51:28;12.20;99.90
23991;DHT22;12205;50.600;4.608;2023-03-09T14:53:58;12.20;99.90
23991;DHT22;12205;50.600;4.608;2023-03-09T14:56:27;12.30;99.90
23991;DHT22;12205;50.600;4.608;2023-03-09T14:58:55;12.40;99.90
23991;DHT22;12205;50.600;4.608;2023-03-09T15:01:25;12.60;99.90
23991;DHT22;12205;50.600;4.608;2023-03-09T15:03:55;12.90;99.90
23991;DHT22;12205;50.600;4.608;2023-03-09T15:06:24;13.00;99.90
23991;DHT22;12205;50.600;4.608;2023-03-09T15:08:51;13.10;99.90
23991;DHT22;12205;50.600;4.608;2023-03-09T15:11:19;13.20;99.90
23991;DHT22;12205;50.600;4.608;2023-03-09T15:13:47;13.10;99.90
23991;DHT22;12205;50.600;4.608;2023-03-09T15:16:14;13.10;99.90
23991;DHT22;12205;50.600;4.608;2023-03-09T15:18:42;13.20;99.90
23991;DHT22;12205;50.600;4.608;2023-03-09T15:21:09;13.20;99.90
23991;DHT22;12205;50.600;4.608;2023-03-09T15:23:36;13.20;99.90
23991;DHT22;12205;50.600;4.608;2023-03-09T15:26:04;13.20;99.90
23991;DHT22;12205;50.600;4.608;2023-03-09T15:28:32;13.20;99.90
23991;DHT22;12205;50.600;4.608;2023-03-09T15:30:59;13.10;99.90
23991;DHT22;12205;50.600;4.608;2023-03-09T15:33:26;13.10;99.90
23991;DHT22;12205;50.600;4.608;2023-03-09T15:35:55;13.10;99.90
23991;DHT22;12205;50.600;4.608;2023-03-09T15:38:22;13.00;99.90
23991;DHT22;12205;50.600;4.608;2023-03-09T15:40:48;13.00;99.90
23991;DHT22;12205;50.600;4.608;2023-03-09T15:43:15;13.00;99.90
23991;DHT22;12205;50.600;4.608;2023-03-09T15:45:42;12.90;99.90
23991;DHT22;12205;50.600;4.608;2023-03-09T15:48:10;12.90;99.90
23991;DHT22;12205;50.600;4.608;2023-03-09T15:50:37;12.90;99.90
23991;DHT22;12205;50.600;4.608;2023-03-09T15:53:06;12.80;99.90
23991;DHT22;12205;50.600;4.608;2023-03-09T15:55:33;12.80;99.90
23991;DHT22;12205;50.600;4.608;2023-03-09T15:58:00;12.80;99.90
23991;DHT22;12205;50.600;4.608;2023-03-09T16:00:27;12.80;99.90
23991;DHT22;12205;50.600;4.608;2023-03-09T16:02:59;12.80;99.90
23991;DHT22;12205;50.600;4.608;2023-03-09T16:05:26;12.70;99.90